Anne Sibum — C4YC2 — position and weather

sailwx.info

Track history (hours):
 
Tides and Currents Weather Stations Pressure Air Temp Water Temp Dewpoint Dewpoint Depression Visibility Wind Speed Wind Dir Waves Ship Positions

Anne Sibum

Last reported at 2016-Sep-25 21:34 UTC. Time now 2016-Sep-25 22:36 UTC.
Position N 51°58' E 004°02'.

Length 151 m; draft 7.7 m.

Type: Ship (hazmat cat A). MMSI: 209322000.

Date/timePositionNaut miles runAvg speedWind from/ knotsBaromVisibWave heightAir tempDewpointWater temp
2016-Sep-25 21:34N 51°58' E 004°02'1 0.2
2016-Sep-25 17:32N 51°58' E 004°03'0 0.0
2016-Sep-25 16:32N 51°58' E 004°03'0 0.0
2016-Sep-25 15:32N 51°58' E 004°03'0 0.0
2016-Sep-25 14:31N 51°58' E 004°03'0 0.0
2016-Sep-25 12:33N 51°58' E 004°03'0 0.0
2016-Sep-25 11:33N 51°58' E 004°03'0 0.0
2016-Sep-25 10:33N 51°58' E 004°03'1 1.0
2016-Sep-25 09:33N 51°57' E 004°04'0 0.0
2016-Sep-25 07:30N 51°57' E 004°04'0 0.0
2016-Sep-25 04:32N 51°57' E 004°04'0 0.0
2016-Sep-25 00:33N 51°57' E 004°04'0 0.0
2016-Sep-24 22:32N 51°57' E 004°04'0 0.1
2016-Sep-24 21:33N 51°57' E 004°05'1 0.6
2016-Sep-24 19:31N 51°57' E 004°03'0 0.0
2016-Sep-24 18:31N 51°57' E 004°03'0 0.0
2016-Sep-24 17:33N 51°57' E 004°03'0 0.0
2016-Sep-24 16:33N 51°57' E 004°03'0 0.0
2016-Sep-24 14:34N 51°57' E 004°03'2 0.8
2016-Sep-24 12:31N 51°57' E 003°60'0 0.0
2016-Sep-24 10:31N 51°57' E 003°60'0 0.0
2016-Sep-24 09:33N 51°57' E 003°60'0 0.0
2016-Sep-24 03:31N 51°57' E 003°60'0 0.0
2016-Sep-24 02:33N 51°57' E 003°60'0 0.0
2016-Sep-24 01:33N 51°57' E 003°60'2 1.7
2016-Sep-24 00:33N 51°58' E 004°02'15 3.0
2016-Sep-23 19:29N 51°53' E 004°25'0 0.0
2016-Sep-23 17:31N 51°53' E 004°25'0 0.0
2016-Sep-23 16:33N 51°53' E 004°25'0 0.0
2016-Sep-23 15:33N 51°53' E 004°25'0 0.0
2016-Sep-23 13:33N 51°53' E 004°25'0 0.0
2016-Sep-23 09:33N 51°53' E 004°25'29 9.6
2016-Sep-23 06:33N 51°58' E 003°39'3115.4
2016-Sep-23 04:33N 51°49' E 002°51'1514.7
2016-Sep-23 03:33N 51°41' E 002°31'1515.5
2016-Sep-23 02:33N 51°29' E 002°15'1615.6
2016-Sep-23 01:34N 51°15' E 002°05'1515.1
2016-Sep-23 00:33N 51°07' E 001°45'1414.5
2016-Sep-22 23:34N 50°56' E 001°29'16314.7
2016-Sep-22 12:27N 50°09' W 002°37'13314.4
2016-Sep-22 03:11N 50°22' W 006°05'8216.6
2016-Sep-21 22:14N 51°21' W 007°36'3914.7
2016-Sep-21 19:33N 51°51' W 008°17'6 2.0
2016-Sep-21 16:31N 51°54' W 008°25'0 0.0
2016-Sep-21 09:31N 51°54' W 008°25'0 0.0
2016-Sep-21 08:30N 51°54' W 008°25'0 0.0
2016-Sep-21 05:29N 51°54' W 008°25'0 0.0
2016-Sep-21 03:31N 51°54' W 008°25'0 0.0
2016-Sep-21 02:31N 51°54' W 008°25'0 0.0
2016-Sep-20 17:30N 51°54' W 008°25'0 0.0
2016-Sep-20 14:32N 51°54' W 008°25'0 0.0
2016-Sep-20 13:31N 51°54' W 008°25'0 0.0
2016-Sep-20 10:33N 51°54' W 008°25'0 0.0
2016-Sep-20 08:32N 51°54' W 008°25'0 0.1
2016-Sep-20 07:33N 51°54' W 008°25'5 5.4
2016-Sep-20 06:33N 51°51' W 008°18'7510.3
2016-Sep-19 23:14N 50°57' W 006°54'10311.9
2016-Sep-19 14:34N 49°59' W 004°40'1817.8
2016-Sep-19 13:33N 50°02' W 004°13'1818.1
2016-Sep-19 12:34N 50°05' W 003°45'1717.4
2016-Sep-19 11:34N 50°09' W 003°18'3015.1
2016-Sep-19 09:33N 50°14' W 002°32'9816.4
2016-Sep-19 03:34N 50°32' W 000°00'5116.4
2016-Sep-19 00:27N 50°56' E 001°11'13114.7
2016-Sep-18 15:33N 51°54' E 004°19'4 4.1
2016-Sep-18 14:31N 51°54' E 004°26'1 0.3
2016-Sep-18 10:33N 51°53' E 004°25'0 0.0
2016-Sep-18 09:32N 51°53' E 004°25'0 0.0
2016-Sep-18 02:32N 51°53' E 004°25'0 0.0
2016-Sep-18 01:31N 51°53' E 004°25'0 0.0
2016-Sep-18 00:28N 51°53' E 004°25'0 0.0
2016-Sep-17 22:30N 51°53' E 004°25'0 0.0
2016-Sep-17 21:33N 51°53' E 004°25'0 0.0
2016-Sep-17 20:33N 51°53' E 004°25'0 0.0
2016-Sep-17 19:11N 51°53' E 004°25'0 0.0
2016-Sep-17 13:29N 51°53' E 004°25'0 0.0
2016-Sep-17 12:32N 51°53' E 004°25'0 0.0
2016-Sep-17 10:33N 51°53' E 004°25'7 6.5
2016-Sep-17 09:33N 51°55' E 004°15'8 8.5
2016-Sep-17 08:33N 51°58' E 004°03'2 1.6
2016-Sep-17 07:32N 51°57' E 004°00'0 0.0
2016-Sep-17 05:34N 51°57' E 004°00'0 0.0
2016-Sep-17 04:33N 51°57' E 004°00'2 0.5
2016-Sep-17 00:31N 51°58' E 004°03'1 0.1
2016-Sep-16 17:32N 51°57' E 004°03'0 0.0
2016-Sep-16 15:31N 51°57' E 004°03'1 0.2
2016-Sep-16 12:33N 51°58' E 004°03'1 0.3
2016-Sep-16 09:28N 51°57' E 004°04'0 0.0
2016-Sep-16 07:33N 51°57' E 004°04'0 0.0
2016-Sep-16 03:31N 51°57' E 004°04'0 0.0
2016-Sep-16 02:33N 51°57' E 004°04'10 5.2
2016-Sep-16 00:34N 51°60' E 003°48'15 6.0
2016-Sep-15 22:04N 51°55' E 003°25'  
Track history (hours):
 
Tides and Currents Weather Stations Pressure Air Temp Water Temp Dewpoint Dewpoint Depression Visibility Wind Speed Wind Dir Waves Ship Positions

Anne Sibum

Last reported at 2016-Sep-25 21:34 UTC. Time now 2016-Sep-25 22:36 UTC.
Position N 51°58' E 004°02'.

Length 151 m; draft 7.7 m.

Type: Ship (hazmat cat A). MMSI: 209322000.

Date/timePositionNaut miles runAvg speedWind from/ knotsBaromVisibWave heightAir tempDewpointWater temp
2016-Sep-25 21:34N 51°58' E 004°02'1 0.2
2016-Sep-25 17:32N 51°58' E 004°03'0 0.0
2016-Sep-25 16:32N 51°58' E 004°03'0 0.0
2016-Sep-25 15:32N 51°58' E 004°03'0 0.0
2016-Sep-25 14:31N 51°58' E 004°03'0 0.0
2016-Sep-25 12:33N 51°58' E 004°03'0 0.0
2016-Sep-25 11:33N 51°58' E 004°03'0 0.0
2016-Sep-25 10:33N 51°58' E 004°03'1 1.0
2016-Sep-25 09:33N 51°57' E 004°04'0 0.0
2016-Sep-25 07:30N 51°57' E 004°04'0 0.0
2016-Sep-25 04:32N 51°57' E 004°04'0 0.0
2016-Sep-25 00:33N 51°57' E 004°04'0 0.0
2016-Sep-24 22:32N 51°57' E 004°04'0 0.1
2016-Sep-24 21:33N 51°57' E 004°05'1 0.6
2016-Sep-24 19:31N 51°57' E 004°03'0 0.0
2016-Sep-24 18:31N 51°57' E 004°03'0 0.0
2016-Sep-24 17:33N 51°57' E 004°03'0 0.0
2016-Sep-24 16:33N 51°57' E 004°03'0 0.0
2016-Sep-24 14:34N 51°57' E 004°03'2 0.8
2016-Sep-24 12:31N 51°57' E 003°60'0 0.0
2016-Sep-24 10:31N 51°57' E 003°60'0 0.0
2016-Sep-24 09:33N 51°57' E 003°60'0 0.0
2016-Sep-24 03:31N 51°57' E 003°60'0 0.0
2016-Sep-24 02:33N 51°57' E 003°60'0 0.0
2016-Sep-24 01:33N 51°57' E 003°60'2 1.7
2016-Sep-24 00:33N 51°58' E 004°02'15 3.0
2016-Sep-23 19:29N 51°53' E 004°25'0 0.0
2016-Sep-23 17:31N 51°53' E 004°25'0 0.0
2016-Sep-23 16:33N 51°53' E 004°25'0 0.0
2016-Sep-23 15:33N 51°53' E 004°25'0 0.0
2016-Sep-23 13:33N 51°53' E 004°25'0 0.0
2016-Sep-23 09:33N 51°53' E 004°25'29 9.6
2016-Sep-23 06:33N 51°58' E 003°39'3115.4
2016-Sep-23 04:33N 51°49' E 002°51'1514.7
2016-Sep-23 03:33N 51°41' E 002°31'1515.5
2016-Sep-23 02:33N 51°29' E 002°15'1615.6
2016-Sep-23 01:34N 51°15' E 002°05'1515.1
2016-Sep-23 00:33N 51°07' E 001°45'1414.5
2016-Sep-22 23:34N 50°56' E 001°29'16314.7
2016-Sep-22 12:27N 50°09' W 002°37'13314.4
2016-Sep-22 03:11N 50°22' W 006°05'8216.6
2016-Sep-21 22:14N 51°21' W 007°36'3914.7
2016-Sep-21 19:33N 51°51' W 008°17'6 2.0
2016-Sep-21 16:31N 51°54' W 008°25'0 0.0
2016-Sep-21 09:31N 51°54' W 008°25'0 0.0
2016-Sep-21 08:30N 51°54' W 008°25'0 0.0
2016-Sep-21 05:29N 51°54' W 008°25'0 0.0
2016-Sep-21 03:31N 51°54' W 008°25'0 0.0
2016-Sep-21 02:31N 51°54' W 008°25'0 0.0
2016-Sep-20 17:30N 51°54' W 008°25'0 0.0
2016-Sep-20 14:32N 51°54' W 008°25'0 0.0
2016-Sep-20 13:31N 51°54' W 008°25'0 0.0
2016-Sep-20 10:33N 51°54' W 008°25'0 0.0
2016-Sep-20 08:32N 51°54' W 008°25'0 0.1
2016-Sep-20 07:33N 51°54' W 008°25'5 5.4
2016-Sep-20 06:33N 51°51' W 008°18'7510.3
2016-Sep-19 23:14N 50°57' W 006°54'10311.9
2016-Sep-19 14:34N 49°59' W 004°40'1817.8
2016-Sep-19 13:33N 50°02' W 004°13'1818.1
2016-Sep-19 12:34N 50°05' W 003°45'1717.4
2016-Sep-19 11:34N 50°09' W 003°18'3015.1
2016-Sep-19 09:33N 50°14' W 002°32'9816.4
2016-Sep-19 03:34N 50°32' W 000°00'5116.4
2016-Sep-19 00:27N 50°56' E 001°11'13114.7
2016-Sep-18 15:33N 51°54' E 004°19'4 4.1
2016-Sep-18 14:31N 51°54' E 004°26'1 0.3
2016-Sep-18 10:33N 51°53' E 004°25'0 0.0
2016-Sep-18 09:32N 51°53' E 004°25'0 0.0
2016-Sep-18 02:32N 51°53' E 004°25'0 0.0
2016-Sep-18 01:31N 51°53' E 004°25'0 0.0
2016-Sep-18 00:28N 51°53' E 004°25'0 0.0
2016-Sep-17 22:30N 51°53' E 004°25'0 0.0
2016-Sep-17 21:33N 51°53' E 004°25'0 0.0
2016-Sep-17 20:33N 51°53' E 004°25'0 0.0
2016-Sep-17 19:11N 51°53' E 004°25'0 0.0
2016-Sep-17 13:29N 51°53' E 004°25'0 0.0
2016-Sep-17 12:32N 51°53' E 004°25'0 0.0
2016-Sep-17 10:33N 51°53' E 004°25'7 6.5
2016-Sep-17 09:33N 51°55' E 004°15'8 8.5
2016-Sep-17 08:33N 51°58' E 004°03'2 1.6
2016-Sep-17 07:32N 51°57' E 004°00'0 0.0
2016-Sep-17 05:34N 51°57' E 004°00'0 0.0
2016-Sep-17 04:33N 51°57' E 004°00'2 0.5
2016-Sep-17 00:31N 51°58' E 004°03'1 0.1
2016-Sep-16 17:32N 51°57' E 004°03'0 0.0
2016-Sep-16 15:31N 51°57' E 004°03'1 0.2
2016-Sep-16 12:33N 51°58' E 004°03'1 0.3
2016-Sep-16 09:28N 51°57' E 004°04'0 0.0
2016-Sep-16 07:33N 51°57' E 004°04'0 0.0
2016-Sep-16 03:31N 51°57' E 004°04'0 0.0
2016-Sep-16 02:33N 51°57' E 004°04'10 5.2
2016-Sep-16 00:34N 51°60' E 003°48'15 6.0
2016-Sep-15 22:04N 51°55' E 003°25'  

Dump ship's entire track history